createdAt,value
2023-05-14T00:00:43.024Z,10.80
2023-05-14T00:03:44.732Z,10.80
2023-05-14T00:06:46.503Z,10.80
2023-05-14T00:09:48.156Z,10.70
2023-05-14T00:12:51.427Z,10.70
2023-05-14T00:15:53.104Z,10.70
2023-05-14T00:18:54.815Z,10.60
2023-05-14T00:21:56.408Z,10.60
2023-05-14T00:24:58.032Z,10.50
2023-05-14T00:27:59.631Z,10.50
2023-05-14T00:31:01.241Z,10.40
2023-05-14T00:34:02.875Z,10.30
2023-05-14T00:37:04.600Z,10.30
2023-05-14T00:40:08.349Z,10.30
2023-05-14T00:43:09.939Z,10.30
2023-05-14T00:46:12.459Z,10.20
2023-05-14T00:49:14.448Z,10.20
2023-05-14T00:52:16.756Z,10.20
2023-05-14T00:55:19.138Z,10.10
2023-05-14T00:58:21.823Z,10.10
2023-05-14T01:04:35.160Z,10.00
2023-05-14T01:07:48.962Z,10.10
2023-05-14T01:11:02.961Z,10.00
2023-05-14T01:14:32.884Z,9.90
2023-05-14T01:17:41.110Z,9.90
2023-05-14T01:20:44.363Z,9.90
2023-05-14T01:23:46.244Z,9.80
2023-05-14T01:26:47.910Z,9.80
2023-05-14T01:30:10.677Z,9.70
2023-05-14T01:33:16.116Z,9.70
2023-05-14T01:36:18.042Z,9.70
2023-05-14T01:39:20.284Z,9.70
2023-05-14T01:42:22.409Z,9.60
2023-05-14T01:45:24.984Z,9.70
2023-05-14T01:48:26.588Z,9.70
2023-05-14T01:51:28.273Z,9.60
2023-05-14T01:54:29.970Z,9.60
2023-05-14T01:57:31.636Z,9.60
2023-05-14T02:00:33.319Z,9.60
2023-05-14T02:03:35.045Z,9.60
2023-05-14T02:06:36.685Z,9.60
2023-05-14T02:09:38.483Z,9.60
2023-05-14T02:12:40.094Z,9.60
2023-05-14T02:15:41.728Z,9.70
2023-05-14T02:18:43.487Z,9.60
2023-05-14T02:21:45.107Z,9.60
2023-05-14T02:24:46.777Z,9.60
2023-05-14T02:27:49.326Z,9.60
2023-05-14T02:30:51.025Z,9.60
2023-05-14T02:33:52.628Z,9.60
2023-05-14T02:36:54.196Z,9.70
2023-05-14T02:39:55.773Z,9.70
2023-05-14T02:42:57.439Z,9.70
2023-05-14T02:45:59.086Z,9.70
2023-05-14T02:49:00.776Z,9.70
2023-05-14T02:52:02.432Z,9.80
2023-05-14T02:55:04.821Z,9.80
2023-05-14T02:58:06.561Z,9.80
2023-05-14T03:01:08.708Z,9.90
2023-05-14T03:04:10.879Z,9.90
2023-05-14T03:07:12.560Z,9.90
2023-05-14T03:10:14.240Z,9.90
2023-05-14T03:13:20.573Z,9.90
2023-05-14T03:16:22.566Z,9.90
2023-05-14T03:19:24.413Z,9.90
2023-05-14T03:22:26.294Z,9.80
2023-05-14T03:25:27.995Z,9.80
2023-05-14T03:28:29.594Z,9.80
2023-05-14T03:31:31.602Z,9.70
2023-05-14T03:34:33.401Z,9.70
2023-05-14T03:37:35.292Z,9.70
2023-05-14T03:40:36.933Z,9.60
2023-05-14T03:43:38.502Z,9.60
2023-05-14T03:46:40.266Z,9.60
2023-05-14T03:49:41.907Z,9.50
2023-05-14T03:52:44.158Z,9.50
2023-05-14T03:55:45.810Z,9.50
2023-05-14T03:58:47.494Z,9.40
2023-05-14T04:01:49.099Z,9.50
2023-05-14T04:04:50.796Z,9.40
2023-05-14T04:07:52.545Z,9.50
2023-05-14T04:11:00.756Z,9.50
2023-05-14T04:14:02.581Z,9.50
2023-05-14T04:17:04.438Z,9.60
2023-05-14T04:20:08.097Z,9.70
2023-05-14T04:23:09.786Z,9.90
2023-05-14T04:26:11.370Z,10.10
2023-05-14T04:29:13.014Z,10.30
2023-05-14T04:32:14.668Z,10.50
2023-05-14T04:35:16.322Z,10.70
2023-05-14T04:38:17.947Z,10.90
2023-05-14T04:41:19.528Z,11.00
2023-05-14T04:44:21.117Z,11.10
2023-05-14T04:47:22.780Z,11.10
2023-05-14T04:50:25.931Z,11.20
2023-05-14T04:53:27.768Z,11.30
2023-05-14T04:56:29.389Z,11.40
2023-05-14T04:59:31.479Z,11.40
2023-05-14T05:02:34.644Z,11.30
2023-05-14T05:05:36.461Z,11.20
2023-05-14T05:08:38.170Z,11.10
2023-05-14T05:11:39.817Z,10.90
2023-05-14T05:14:41.431Z,10.80
2023-05-14T05:17:43.241Z,10.70
2023-05-14T05:20:45.030Z,10.70
2023-05-14T05:23:46.825Z,10.70
2023-05-14T05:26:50.113Z,10.70
2023-05-14T05:29:51.882Z,10.60
2023-05-14T05:32:53.727Z,10.60
2023-05-14T05:35:55.399Z,10.70
2023-05-14T05:38:57.041Z,10.80
2023-05-14T05:41:58.771Z,10.90
2023-05-14T05:45:00.376Z,11.10
2023-05-14T05:48:02.031Z,11.20
2023-05-14T05:51:03.817Z,11.30
2023-05-14T05:54:05.547Z,11.50
2023-05-14T05:57:07.230Z,11.60
2023-05-14T06:00:13.126Z,11.80
2023-05-14T06:03:14.870Z,11.90
2023-05-14T06:06:16.561Z,11.90
2023-05-14T06:09:18.281Z,12.00
2023-05-14T06:12:19.864Z,12.10
2023-05-14T06:15:21.707Z,12.30
2023-05-14T06:18:23.273Z,12.50
2023-05-14T06:21:25.155Z,12.60
2023-05-14T06:24:26.828Z,12.70
2023-05-14T06:27:28.652Z,12.90
2023-05-14T06:30:30.241Z,13.40
2023-05-14T06:33:31.887Z,13.60
2023-05-14T06:36:33.535Z,13.80
2023-05-14T06:39:36.317Z,13.90
2023-05-14T06:42:38.004Z,14.20
2023-05-14T06:45:39.614Z,14.30
2023-05-14T06:48:41.273Z,14.50
2023-05-14T06:51:42.961Z,14.70
2023-05-14T06:54:47.460Z,14.70
2023-05-14T06:57:49.127Z,14.90
2023-05-14T07:00:50.798Z,15.10
2023-05-14T07:03:52.512Z,15.30
2023-05-14T07:06:54.249Z,15.40
2023-05-14T07:09:55.870Z,15.50
2023-05-14T07:12:57.535Z,15.70
2023-05-14T07:15:59.161Z,15.70
2023-05-14T07:19:00.830Z,15.80
2023-05-14T07:22:02.643Z,15.80
2023-05-14T07:25:04.534Z,15.80
2023-05-14T07:28:07.381Z,16.00
2023-05-14T07:31:09.325Z,16.00
2023-05-14T07:34:11.632Z,16.00
2023-05-14T07:37:13.500Z,16.10
2023-05-14T07:40:15.311Z,16.10
2023-05-14T07:43:17.356Z,16.20
2023-05-14T07:46:19.341Z,16.30
2023-05-14T07:49:20.999Z,16.40
2023-05-14T07:52:23.572Z,16.30
2023-05-14T07:55:25.815Z,16.30
2023-05-14T07:58:28.789Z,16.40
2023-05-14T08:01:31.581Z,16.40
2023-05-14T08:04:33.288Z,16.60
2023-05-14T08:07:35.197Z,16.60
2023-05-14T08:10:36.856Z,16.50
2023-05-14T08:13:38.518Z,16.50
2023-05-14T08:16:40.166Z,16.60
2023-05-14T08:19:41.767Z,16.70
2023-05-14T08:22:43.419Z,16.80
2023-05-14T08:25:45.190Z,17.00
2023-05-14T08:28:46.788Z,17.10
2023-05-14T08:31:51.552Z,17.10
2023-05-14T08:34:53.158Z,17.10
2023-05-14T08:37:54.886Z,17.20
2023-05-14T08:41:00.855Z,17.10
2023-05-14T08:44:09.342Z,17.20
2023-05-14T08:47:12.339Z,17.30
2023-05-14T08:50:14.400Z,17.40
2023-05-14T08:53:16.092Z,17.40
2023-05-14T08:56:19.184Z,17.40
2023-05-14T08:59:21.041Z,17.40
2023-05-14T09:02:27.550Z,17.50
2023-05-14T09:05:29.276Z,17.40
2023-05-14T09:08:31.827Z,17.50
2023-05-14T09:11:33.764Z,17.60
2023-05-14T09:14:35.449Z,17.90
2023-05-14T09:17:37.311Z,18.20
2023-05-14T09:20:39.222Z,18.50
2023-05-14T09:23:45.120Z,18.90
2023-05-14T09:26:51.571Z,18.90
2023-05-14T09:29:53.160Z,18.80
2023-05-14T09:32:55.136Z,18.90
2023-05-14T09:36:00.921Z,18.90
2023-05-14T09:39:05.607Z,18.80
2023-05-14T09:42:07.345Z,18.50
2023-05-14T09:45:10.090Z,18.50
2023-05-14T09:48:11.776Z,18.60
2023-05-14T09:51:14.014Z,18.40
2023-05-14T09:54:15.916Z,18.40
2023-05-14T09:57:17.547Z,18.40
2023-05-14T10:00:19.570Z,18.40
2023-05-14T10:03:24.731Z,18.50
2023-05-14T10:06:31.552Z,18.50
2023-05-14T10:09:33.400Z,18.40
2023-05-14T10:12:38.795Z,18.30
2023-05-14T10:15:46.305Z,18.20
2023-05-14T10:18:52.482Z,18.30
2023-05-14T10:22:04.896Z,18.30
2023-05-14T10:25:07.352Z,18.30
2023-05-14T10:28:09.522Z,18.40
2023-05-14T10:31:11.150Z,18.30
2023-05-14T10:34:37.934Z,18.20
2023-05-14T10:37:39.635Z,18.10
2023-05-14T10:40:41.335Z,18.10
2023-05-14T10:43:43.695Z,18.20
2023-05-14T10:46:45.483Z,18.20
2023-05-14T10:49:50.626Z,18.20
2023-05-14T10:52:52.505Z,18.40
2023-05-14T10:55:55.357Z,18.40
2023-05-14T10:58:59.760Z,18.30
2023-05-14T11:02:05.527Z,18.50
2023-05-14T11:05:15.735Z,18.60
2023-05-14T11:08:18.801Z,18.70
2023-05-14T11:11:20.600Z,18.90
2023-05-14T11:14:23.003Z,19.00
2023-05-14T11:17:29.451Z,19.20
2023-05-14T11:20:32.964Z,19.10
2023-05-14T11:23:55.432Z,19.30
2023-05-14T11:27:09.428Z,19.20
2023-05-14T11:30:18.958Z,19.50
2023-05-14T11:33:21.020Z,19.80
2023-05-14T11:36:22.939Z,19.90
2023-05-14T11:39:24.878Z,19.80
2023-05-14T11:42:26.610Z,19.60
2023-05-14T11:45:29.827Z,19.60
2023-05-14T11:48:32.968Z,19.60
2023-05-14T11:51:36.033Z,19.70
2023-05-14T11:54:38.192Z,19.90
2023-05-14T11:57:41.150Z,19.90
2023-05-14T12:00:45.591Z,19.70
2023-05-14T12:03:47.376Z,19.80
2023-05-14T12:06:50.291Z,19.80
2023-05-14T12:10:12.872Z,19.90
2023-05-14T12:13:18.137Z,19.90
2023-05-14T12:16:21.544Z,19.70
2023-05-14T12:19:25.787Z,19.90
2023-05-14T12:22:29.747Z,20.00
2023-05-14T12:25:32.026Z,20.00
2023-05-14T12:28:36.909Z,20.10
2023-05-14T12:31:47.218Z,20.30
2023-05-14T12:34:49.464Z,20.60
2023-05-14T12:38:10.613Z,20.80
2023-05-14T12:41:31.595Z,21.10
2023-05-14T12:44:33.726Z,21.20
2023-05-14T12:47:37.201Z,21.60
2023-05-14T12:50:40.017Z,21.80
2023-05-14T12:53:42.317Z,21.50
2023-05-14T12:56:44.600Z,21.30
2023-05-14T12:59:46.886Z,21.20
2023-05-14T13:02:49.124Z,20.80
2023-05-14T13:05:54.427Z,21.00
2023-05-14T13:08:57.016Z,21.10
2023-05-14T13:11:59.246Z,21.40
2023-05-14T13:15:01.545Z,21.50
2023-05-14T13:18:03.623Z,21.20
2023-05-14T13:21:06.371Z,21.10
2023-05-14T13:24:09.969Z,20.80
2023-05-14T13:27:11.797Z,20.50
2023-05-14T13:30:13.553Z,20.60
2023-05-14T13:33:18.048Z,20.70
2023-05-14T13:36:22.209Z,20.90
2023-05-14T13:39:27.267Z,20.90
2023-05-14T13:42:29.563Z,21.10
2023-05-14T13:45:33.532Z,21.10
2023-05-14T13:48:37.095Z,21.10
2023-05-14T13:51:38.650Z,21.50
2023-05-14T13:54:40.226Z,22.00
2023-05-14T13:57:42.942Z,22.10
2023-05-14T14:00:44.537Z,22.30
2023-05-14T14:03:46.095Z,22.40
2023-05-14T14:06:47.779Z,22.70
2023-05-14T14:09:49.800Z,22.50
2023-05-14T14:12:51.953Z,22.10
2023-05-14T14:15:53.619Z,22.10
2023-05-14T14:18:55.388Z,22.10
2023-05-14T14:21:56.992Z,22.10
2023-05-14T14:24:58.729Z,22.10
2023-05-14T14:28:00.981Z,21.90
2023-05-14T14:31:03.103Z,22.30
2023-05-14T14:34:04.657Z,22.40
2023-05-14T14:37:06.273Z,22.20
2023-05-14T14:40:09.773Z,21.70
2023-05-14T14:43:11.409Z,21.20
2023-05-14T14:46:13.732Z,20.70
2023-05-14T14:49:15.380Z,20.50
2023-05-14T14:52:17.064Z,20.30
2023-05-14T14:55:18.682Z,20.50
2023-05-14T14:58:20.783Z,20.80
2023-05-14T15:01:22.871Z,21.10
2023-05-14T15:04:24.578Z,21.50
2023-05-14T15:07:26.198Z,21.90
2023-05-14T15:10:28.797Z,22.00
2023-05-14T15:13:30.367Z,22.00
2023-05-14T15:16:32.012Z,22.20
2023-05-14T15:19:33.653Z,22.20
2023-05-14T15:22:35.398Z,22.10
2023-05-14T15:25:37.038Z,22.10
2023-05-14T15:28:38.831Z,22.40
2023-05-14T15:31:41.205Z,22.60
2023-05-14T15:34:42.914Z,22.70
2023-05-14T15:37:45.004Z,22.70
2023-05-14T15:40:46.702Z,22.80
2023-05-14T15:43:48.763Z,22.70
2023-05-14T15:46:50.417Z,22.50
2023-05-14T15:49:52.129Z,22.70
2023-05-14T15:52:53.932Z,23.00
2023-05-14T15:55:56.456Z,23.20
2023-05-14T15:58:58.086Z,23.30
2023-05-14T16:01:59.836Z,23.60
2023-05-14T16:05:01.528Z,23.60
2023-05-14T16:08:03.574Z,23.70
2023-05-14T16:11:06.165Z,23.70
2023-05-14T16:14:07.773Z,23.90
2023-05-14T16:17:09.510Z,24.30
2023-05-14T16:20:12.035Z,24.70
2023-05-14T16:23:17.146Z,24.90
2023-05-14T16:26:22.325Z,24.70
2023-05-14T16:29:24.321Z,24.40
2023-05-14T16:32:26.086Z,24.30
2023-05-14T16:35:27.802Z,24.60
2023-05-14T16:38:29.423Z,24.90
2023-05-14T16:41:31.127Z,24.90
2023-05-14T16:44:32.906Z,25.10
2023-05-14T16:47:34.570Z,25.20
2023-05-14T16:50:36.225Z,24.30
2023-05-14T16:53:37.864Z,22.60
2023-05-14T16:56:39.569Z,21.60
2023-05-14T16:59:41.372Z,20.80
2023-05-14T17:02:43.573Z,20.30
2023-05-14T17:05:45.298Z,20.20
2023-05-14T17:08:46.881Z,20.20
2023-05-14T17:11:48.537Z,20.80
2023-05-14T17:14:50.110Z,21.30
2023-05-14T17:17:51.738Z,21.30
2023-05-14T17:20:53.462Z,21.70
2023-05-14T17:23:55.106Z,22.00
2023-05-14T17:26:56.828Z,22.10
2023-05-14T17:29:58.819Z,22.20
2023-05-14T17:33:00.658Z,21.90
2023-05-14T17:36:02.428Z,21.50
2023-05-14T17:39:04.110Z,21.30
2023-05-14T17:42:06.635Z,21.10
2023-05-14T17:45:08.718Z,21.00
2023-05-14T17:48:10.477Z,20.90
2023-05-14T17:51:12.252Z,20.60
2023-05-14T17:54:13.913Z,20.30
2023-05-14T17:57:15.868Z,20.00
2023-05-14T18:00:17.951Z,19.80
2023-05-14T18:03:20.421Z,19.60
2023-05-14T18:06:22.308Z,19.50
2023-05-14T18:09:24.057Z,19.40
2023-05-14T18:12:26.855Z,19.20
2023-05-14T18:15:29.510Z,19.20
2023-05-14T18:18:31.876Z,19.10
2023-05-14T18:21:33.533Z,19.00
2023-05-14T18:24:35.252Z,19.00
2023-05-14T18:27:39.440Z,19.00
2023-05-14T18:30:41.292Z,18.90
2023-05-14T18:33:43.079Z,18.80
2023-05-14T18:36:44.689Z,18.80
2023-05-14T18:39:46.264Z,18.60
2023-05-14T18:42:47.968Z,18.50
2023-05-14T18:45:49.806Z,18.40
2023-05-14T18:48:51.701Z,18.30
2023-05-14T18:51:53.400Z,18.20
2023-05-14T18:54:55.092Z,18.10
2023-05-14T18:57:57.246Z,17.90
2023-05-14T19:00:59.006Z,17.70
2023-05-14T19:04:02.526Z,17.50
2023-05-14T19:07:06.047Z,17.50
2023-05-14T19:10:08.627Z,17.40
2023-05-14T19:13:10.358Z,17.30
2023-05-14T19:16:12.715Z,17.20
2023-05-14T19:19:14.494Z,17.20
2023-05-14T19:22:16.868Z,17.20
2023-05-14T19:25:18.514Z,17.10
2023-05-14T19:28:20.215Z,17.10
2023-05-14T19:31:21.855Z,17.00
2023-05-14T19:34:23.602Z,16.90
2023-05-14T19:37:26.121Z,16.90
2023-05-14T19:40:28.601Z,16.90
2023-05-14T19:43:30.208Z,16.80
2023-05-14T19:46:31.946Z,16.80
2023-05-14T19:49:33.573Z,16.70
2023-05-14T19:52:35.215Z,16.70
2023-05-14T19:55:37.054Z,16.60
2023-05-14T19:58:38.774Z,16.60
2023-05-14T20:01:41.309Z,16.50
2023-05-14T20:04:42.923Z,16.50
2023-05-14T20:07:44.765Z,16.40
2023-05-14T20:10:47.198Z,16.30
2023-05-14T20:13:48.864Z,16.20
2023-05-14T20:16:50.681Z,16.20
2023-05-14T20:19:52.365Z,16.10
2023-05-14T20:22:53.983Z,16.00
2023-05-14T20:25:55.632Z,16.00
2023-05-14T20:28:57.210Z,15.90
2023-05-14T20:31:58.996Z,15.80
2023-05-14T20:35:02.028Z,15.80
2023-05-14T20:38:03.834Z,15.70
2023-05-14T20:41:05.692Z,15.70
2023-05-14T20:44:07.578Z,15.60
2023-05-14T20:47:09.164Z,15.50
2023-05-14T20:50:11.541Z,15.50
2023-05-14T20:53:13.211Z,15.50
2023-05-14T20:56:14.803Z,15.40
2023-05-14T20:59:16.374Z,15.30
2023-05-14T21:02:18.128Z,15.20
2023-05-14T21:05:20.650Z,15.20
2023-05-14T21:08:22.423Z,15.10
2023-05-14T21:11:24.063Z,15.00
2023-05-14T21:14:25.721Z,15.00
2023-05-14T21:17:27.338Z,14.90
2023-05-14T21:20:28.952Z,14.90
2023-05-14T21:23:30.610Z,14.80
2023-05-14T21:26:32.680Z,14.70
2023-05-14T21:29:34.293Z,14.60
2023-05-14T21:32:36.090Z,14.50
2023-05-14T21:35:37.859Z,14.40
2023-05-14T21:38:39.661Z,14.30
2023-05-14T21:41:41.273Z,14.30
2023-05-14T21:44:42.832Z,14.10
2023-05-14T21:47:44.505Z,14.10
2023-05-14T21:50:46.771Z,14.00
2023-05-14T21:53:48.369Z,14.00
2023-05-14T21:56:50.006Z,13.90
2023-05-14T21:59:51.572Z,13.90
2023-05-14T22:02:53.466Z,13.80
2023-05-14T22:05:56.067Z,13.80
2023-05-14T22:08:57.629Z,13.70
2023-05-14T22:11:59.465Z,13.70
2023-05-14T22:15:01.160Z,13.60
2023-05-14T22:18:03.087Z,13.50
2023-05-14T22:21:04.835Z,13.40
2023-05-14T22:24:06.919Z,13.30
2023-05-14T22:27:08.501Z,13.20
2023-05-14T22:30:10.458Z,13.20
2023-05-14T22:33:12.324Z,13.10
2023-05-14T22:36:14.030Z,13.10
2023-05-14T22:39:15.711Z,13.00
2023-05-14T22:42:17.435Z,13.00
2023-05-14T22:45:19.004Z,12.90
2023-05-14T22:48:20.593Z,12.90
2023-05-14T22:51:22.150Z,12.90
2023-05-14T22:54:23.823Z,12.90
2023-05-14T22:57:25.598Z,12.80
2023-05-14T23:00:27.159Z,12.80
2023-05-14T23:03:29.309Z,12.70
2023-05-14T23:06:31.642Z,12.60
2023-05-14T23:09:33.349Z,12.50
2023-05-14T23:12:35.071Z,12.40
2023-05-14T23:15:36.712Z,12.40
2023-05-14T23:18:38.564Z,12.40
2023-05-14T23:21:40.285Z,12.30
2023-05-14T23:24:41.905Z,12.20
2023-05-14T23:27:43.514Z,12.20
2023-05-14T23:30:45.605Z,12.20
2023-05-14T23:33:47.190Z,12.20
2023-05-14T23:36:48.814Z,12.10
2023-05-14T23:39:50.685Z,12.00
2023-05-14T23:42:52.404Z,12.00
2023-05-14T23:45:54.204Z,11.90
2023-05-14T23:48:57.150Z,11.80
2023-05-14T23:51:58.783Z,11.80
2023-05-14T23:55:00.550Z,11.80
2023-05-14T23:58:02.280Z,11.80
